Relevés horaires Koksijde (Belgique)


Relevés horaires à Koksijde - Samedi 19 Janv. 2019
Heure UTC1 Température [°C] Vent [km/h] Hum. [%] Pres.4 [hPa] Visi. [Km] Nébu. [octa] Préc.5 [mm] Cond.
2m. Res. Ros. Dir.2 Vit. Moy. Raf.3
17:00 -0.1 -2 -2.4 E 5.6 -- 9.3 84 1011.5(-0.3/3h) 9 -- -- --
16:00 0.8 -0.9 -2.4 E 5.6 -- 9.3 79 1011.3(-1.1/3h) 12 -- -- --
15:00 2.6 1.1 -1.9 ESE 5.6 -- 14.8 72 1011.5(-1.6/3h) 12 -- -- --
14:00 2.8 0.2 -2.3 SE 9.3 -- 14.8 69 1011.8(-1.8/3h) 13 -- -- --
13:00 2.7 0.1 -2.3 SE 9.3 -- 14.8 70 1012.5(-1.4/3h) 14 -- -- --
12:00 2.1 -0.6 -2.0 SE 9.3 -- 14.8 74 1013.2(-1.0/3h) 11 -- -- --
11:00 1.2 -1.7 -2.3 SSE 9.3 -- 14.8 77 1013.7(-0.3/3h) 12 -- -- --
10:00 0.1 -3 -2.6 SE 9.3 -- 14.8 82 1014(0.1/3h) 11 -- -- --
10:00 0.1 -3 -2.6 SE 9.3 -- 14.8 82 1014(0.1/3h) 11 -- -- --
09:00 -1.0 -4.3 -3.1 SE 9.3 -- 13.0 86 1014.2(-0.2/3h) 7 -- -- --
09:00 -1.0 -4.3 -3.1 SE 9.3 -- 13.0 86 1014.2(-0.2/3h) 7 -- -- --
08:00 -1.6 -4.4 -3.4 SE 7.4 -- 11.1 87 1014.1(-0.8/3h) 8 -- -- --
08:00 -1.6 -4.4 -3.4 SE 7.4 -- 11.1 87 1014.1(-0.8/3h) 8 -- -- --
07:00 -1.8 -4.6 -3.4 SE 7.4 -- 11.1 89 1014.1(-1.3/3h) 6 -- -- --
06:00 -1.7 -4.5 -3.2 SE 7.4 -- 13.0 89 1014.3(-1.4/3h) 7 -- -- --
05:00 -1.6 -3.7 -3.0 SE 5.6 -- 11.1 90 1014.8(-1.4/3h) 6 -- -- --
04:00 -1.2 -3.2 -2.7 SE 5.6 -- 11.1 89 1015.3(-1.2/3h) 7 -- -- --
03:00 -1.1 -3.8 -2.5 SE 7.4 -- 13.0 90 1015.8(-1.0/3h) 5 -- -- --
03:00 -1.1 -3.8 -2.5 SE 7.4 -- 13.0 90 1015.8(-1.0/3h) 5 -- -- --
02:00 -0.9 -3.6 -2.4 SSE 7.4 -- 11.1 90 1016.3(-1.1/3h) 5 -- -- --
01:00 -0.6 -3.2 -2.2 SSE 7.4 -- 13.0 89 1016.7(-0.9/3h) 6 -- -- --
01:00 -0.6 -3.2 -2.2 SSE 7.4 -- 13.0 89 1016.7(-0.9/3h) 6 -- -- --
00:00 -0.4 -3 -1.9 SE 7.4 -- 14.8 90 1017(-0.9/3h) 7 -- -- --

1 Coordinated Universal Time. Actuellement il est 19:00 locale et 18:00 UTC.

2 Le vent souffle depuis la direction indiquée vers la direction oposée.

3 Les rafales max. sont disponible 40 min après l'heure du relevé.

4 Pour les stations d'altitude (plus de 600m) le géopotentiel du niveau le plus proche de la pression obligatoire est indiqué.

5 Les stations disposant d'un diffuseur peuvent indiquer "trace". Cela signifie que des précipitations ont touchés le sol mais que la quantité est inférieure à 0.1 mm.

Récapitulatif de la journée
Température [°C] Vent [km/h] Ensoleillement4 [h] Precipitations totale5 [mm] Pression [Hpa]
Min1 Max.2 Moy.3 Max. Min Max.
-1.8 -- 0 14.8 0 h 0 min 0 1011.3 1017.0

1 Température minimale relevée entre 18:00 UTC la veille et 18:00 UTC le jour donné.

2 Température maximale relevée entre 06:00 UTC le jour donné et 06:00 UTC le lendemain.

3 Vent moyen de la journée basé sur les relevés horaires.

4 Ensoleillement en heures relevé entre 06:00 UTC la veille et 06:00 UTC le jour donné.

5 Précipitations totales tombées entre 06:00 UTC la jour donné et 06:00 UTC le lendemain.

Graphiques horaires